sensor_id;sensor_type;location;lat;lon;timestamp;P1;durP1;ratioP1;P2;durP2;ratioP2
48703;SDS011;34502;51.296;16.918;2023-11-19T00:00:12;51.05;;;31.63;;
48703;SDS011;34502;51.296;16.918;2023-11-19T00:02:39;50.35;;;32.03;;
48703;SDS011;34502;51.296;16.918;2023-11-19T00:05:05;50.20;;;31.90;;
48703;SDS011;34502;51.296;16.918;2023-11-19T00:07:34;53.58;;;33.35;;
48703;SDS011;34502;51.296;16.918;2023-11-19T00:10:01;53.67;;;33.80;;
48703;SDS011;34502;51.296;16.918;2023-11-19T00:12:31;58.53;;;32.75;;
48703;SDS011;34502;51.296;16.918;2023-11-19T00:14:58;51.25;;;32.42;;
48703;SDS011;34502;51.296;16.918;2023-11-19T00:17:24;57.95;;;34.78;;
48703;SDS011;34502;51.296;16.918;2023-11-19T00:19:50;51.30;;;32.20;;
48703;SDS011;34502;51.296;16.918;2023-11-19T00:22:16;51.85;;;32.88;;
48703;SDS011;34502;51.296;16.918;2023-11-19T00:24:42;56.85;;;34.45;;
48703;SDS011;34502;51.296;16.918;2023-11-19T00:27:09;53.75;;;34.15;;
48703;SDS011;34502;51.296;16.918;2023-11-19T00:29:36;54.50;;;34.05;;
48703;SDS011;34502;51.296;16.918;2023-11-19T00:32:02;51.80;;;32.78;;
48703;SDS011;34502;51.296;16.918;2023-11-19T00:34:30;50.38;;;32.40;;
48703;SDS011;34502;51.296;16.918;2023-11-19T00:36:56;54.42;;;34.25;;
48703;SDS011;34502;51.296;16.918;2023-11-19T00:39:22;50.05;;;32.50;;
48703;SDS011;34502;51.296;16.918;2023-11-19T00:41:51;51.03;;;33.97;;
48703;SDS011;34502;51.296;16.918;2023-11-19T00:44:20;52.28;;;34.08;;
48703;SDS011;34502;51.296;16.918;2023-11-19T00:46:46;53.42;;;30.95;;
48703;SDS011;34502;51.296;16.918;2023-11-19T00:49:12;53.92;;;32.72;;
48703;SDS011;34502;51.296;16.918;2023-11-19T00:51:40;52.30;;;33.22;;
48703;SDS011;34502;51.296;16.918;2023-11-19T00:54:10;49.72;;;32.50;;
48703;SDS011;34502;51.296;16.918;2023-11-19T00:56:36;48.90;;;31.55;;
48703;SDS011;34502;51.296;16.918;2023-11-19T00:59:02;52.78;;;32.53;;
48703;SDS011;34502;51.296;16.918;2023-11-19T01:01:29;49.45;;;32.22;;
48703;SDS011;34502;51.296;16.918;2023-11-19T01:03:55;50.50;;;31.73;;
48703;SDS011;34502;51.296;16.918;2023-11-19T01:06:31;51.05;;;31.33;;
48703;SDS011;34502;51.296;16.918;2023-11-19T01:08:58;48.75;;;30.48;;
48703;SDS011;34502;51.296;16.918;2023-11-19T01:11:26;49.17;;;31.33;;
48703;SDS011;34502;51.296;16.918;2023-11-19T01:13:53;47.90;;;30.35;;
48703;SDS011;34502;51.296;16.918;2023-11-19T01:16:19;47.80;;;31.10;;
48703;SDS011;34502;51.296;16.918;2023-11-19T01:18:49;46.75;;;31.33;;
48703;SDS011;34502;51.296;16.918;2023-11-19T01:21:15;48.55;;;30.30;;
48703;SDS011;34502;51.296;16.918;2023-11-19T01:23:42;50.17;;;31.58;;
48703;SDS011;34502;51.296;16.918;2023-11-19T01:26:08;45.17;;;30.88;;
48703;SDS011;34502;51.296;16.918;2023-11-19T01:28:35;47.45;;;30.60;;
48703;SDS011;34502;51.296;16.918;2023-11-19T01:31:01;48.88;;;30.75;;
48703;SDS011;34502;51.296;16.918;2023-11-19T01:33:28;48.28;;;33.33;;
48703;SDS011;34502;51.296;16.918;2023-11-19T01:35:57;47.13;;;30.42;;
48703;SDS011;34502;51.296;16.918;2023-11-19T01:38:24;48.00;;;31.40;;
48703;SDS011;34502;51.296;16.918;2023-11-19T01:40:50;47.95;;;30.83;;
48703;SDS011;34502;51.296;16.918;2023-11-19T01:43:33;49.25;;;31.63;;
48703;SDS011;34502;51.296;16.918;2023-11-19T01:46:06;43.92;;;29.88;;
48703;SDS011;34502;51.296;16.918;2023-11-19T01:48:36;45.00;;;29.38;;
48703;SDS011;34502;51.296;16.918;2023-11-19T01:51:05;48.97;;;29.88;;
48703;SDS011;34502;51.296;16.918;2023-11-19T01:53:33;50.05;;;32.40;;
48703;SDS011;34502;51.296;16.918;2023-11-19T01:56:02;42.33;;;28.67;;
48703;SDS011;34502;51.296;16.918;2023-11-19T01:58:29;43.67;;;28.60;;
48703;SDS011;34502;51.296;16.918;2023-11-19T02:00:56;42.80;;;27.83;;
48703;SDS011;34502;51.296;16.918;2023-11-19T02:03:22;47.20;;;30.02;;
48703;SDS011;34502;51.296;16.918;2023-11-19T02:05:51;41.90;;;27.88;;
48703;SDS011;34502;51.296;16.918;2023-11-19T02:08:18;44.17;;;28.35;;
48703;SDS011;34502;51.296;16.918;2023-11-19T02:10:45;44.83;;;28.40;;
48703;SDS011;34502;51.296;16.918;2023-11-19T02:13:11;46.53;;;30.17;;
48703;SDS011;34502;51.296;16.918;2023-11-19T02:15:39;43.20;;;28.23;;
48703;SDS011;34502;51.296;16.918;2023-11-19T02:18:18;49.53;;;30.55;;
48703;SDS011;34502;51.296;16.918;2023-11-19T02:20:55;45.90;;;29.77;;
48703;SDS011;34502;51.296;16.918;2023-11-19T02:23:21;41.38;;;26.88;;
48703;SDS011;34502;51.296;16.918;2023-11-19T02:25:55;42.25;;;28.10;;
48703;SDS011;34502;51.296;16.918;2023-11-19T02:28:43;44.10;;;28.73;;
48703;SDS011;34502;51.296;16.918;2023-11-19T02:31:10;40.30;;;26.77;;
48703;SDS011;34502;51.296;16.918;2023-11-19T02:33:41;42.70;;;26.95;;
48703;SDS011;34502;51.296;16.918;2023-11-19T02:36:08;48.00;;;27.48;;
48703;SDS011;34502;51.296;16.918;2023-11-19T02:38:35;41.05;;;26.83;;
48703;SDS011;34502;51.296;16.918;2023-11-19T02:41:04;44.22;;;26.85;;
48703;SDS011;34502;51.296;16.918;2023-11-19T02:43:31;38.13;;;25.58;;
48703;SDS011;34502;51.296;16.918;2023-11-19T02:46:04;40.95;;;26.65;;
48703;SDS011;34502;51.296;16.918;2023-11-19T02:48:34;42.80;;;26.73;;
48703;SDS011;34502;51.296;16.918;2023-11-19T02:51:01;40.05;;;24.80;;
48703;SDS011;34502;51.296;16.918;2023-11-19T02:53:30;41.53;;;27.40;;
48703;SDS011;34502;51.296;16.918;2023-11-19T02:55:56;37.17;;;25.13;;
48703;SDS011;34502;51.296;16.918;2023-11-19T02:58:31;37.38;;;25.40;;
48703;SDS011;34502;51.296;16.918;2023-11-19T03:00:57;41.15;;;26.15;;
48703;SDS011;34502;51.296;16.918;2023-11-19T03:03:27;38.50;;;25.05;;
48703;SDS011;34502;51.296;16.918;2023-11-19T03:06:03;38.47;;;26.67;;
48703;SDS011;34502;51.296;16.918;2023-11-19T03:08:32;44.90;;;28.13;;
48703;SDS011;34502;51.296;16.918;2023-11-19T03:11:00;43.20;;;27.27;;
48703;SDS011;34502;51.296;16.918;2023-11-19T03:13:26;40.17;;;26.35;;
48703;SDS011;34502;51.296;16.918;2023-11-19T03:15:52;39.75;;;26.35;;
48703;SDS011;34502;51.296;16.918;2023-11-19T03:18:21;38.72;;;26.25;;
48703;SDS011;34502;51.296;16.918;2023-11-19T03:20:47;41.25;;;27.63;;
48703;SDS011;34502;51.296;16.918;2023-11-19T03:23:14;46.80;;;27.23;;
48703;SDS011;34502;51.296;16.918;2023-11-19T03:25:40;44.10;;;28.08;;
48703;SDS011;34502;51.296;16.918;2023-11-19T03:28:07;41.22;;;27.38;;
48703;SDS011;34502;51.296;16.918;2023-11-19T03:30:33;45.63;;;26.83;;
48703;SDS011;34502;51.296;16.918;2023-11-19T03:32:59;41.38;;;26.67;;
48703;SDS011;34502;51.296;16.918;2023-11-19T03:35:28;41.17;;;26.33;;
48703;SDS011;34502;51.296;16.918;2023-11-19T03:37:54;46.42;;;27.48;;
48703;SDS011;34502;51.296;16.918;2023-11-19T03:40:20;41.17;;;27.40;;
48703;SDS011;34502;51.296;16.918;2023-11-19T03:42:47;41.80;;;26.67;;
48703;SDS011;34502;51.296;16.918;2023-11-19T03:45:13;46.65;;;27.73;;
48703;SDS011;34502;51.296;16.918;2023-11-19T03:47:40;41.10;;;26.63;;
48703;SDS011;34502;51.296;16.918;2023-11-19T03:50:07;42.55;;;26.48;;
48703;SDS011;34502;51.296;16.918;2023-11-19T03:52:34;46.38;;;28.60;;
48703;SDS011;34502;51.296;16.918;2023-11-19T03:55:00;46.13;;;27.55;;
48703;SDS011;34502;51.296;16.918;2023-11-19T03:57:28;43.60;;;26.75;;
48703;SDS011;34502;51.296;16.918;2023-11-19T03:59:54;39.30;;;25.08;;
48703;SDS011;34502;51.296;16.918;2023-11-19T04:02:20;47.20;;;27.80;;
48703;SDS011;34502;51.296;16.918;2023-11-19T04:04:49;44.90;;;28.05;;
48703;SDS011;34502;51.296;16.918;2023-11-19T04:07:17;45.13;;;28.45;;
48703;SDS011;34502;51.296;16.918;2023-11-19T04:09:43;50.10;;;27.88;;
48703;SDS011;34502;51.296;16.918;2023-11-19T04:12:11;43.10;;;26.13;;
48703;SDS011;34502;51.296;16.918;2023-11-19T04:14:38;54.22;;;28.65;;
48703;SDS011;34502;51.296;16.918;2023-11-19T04:17:06;46.58;;;29.05;;
48703;SDS011;34502;51.296;16.918;2023-11-19T04:19:32;43.13;;;26.10;;
48703;SDS011;34502;51.296;16.918;2023-11-19T04:21:58;43.90;;;26.40;;
48703;SDS011;34502;51.296;16.918;2023-11-19T04:24:24;46.90;;;28.40;;
48703;SDS011;34502;51.296;16.918;2023-11-19T04:26:50;41.90;;;27.20;;
48703;SDS011;34502;51.296;16.918;2023-11-19T04:29:17;41.03;;;26.27;;
48703;SDS011;34502;51.296;16.918;2023-11-19T04:31:46;44.55;;;27.02;;
48703;SDS011;34502;51.296;16.918;2023-11-19T04:34:12;39.78;;;25.08;;
48703;SDS011;34502;51.296;16.918;2023-11-19T04:36:38;46.05;;;27.00;;
48703;SDS011;34502;51.296;16.918;2023-11-19T04:39:04;43.00;;;25.92;;
48703;SDS011;34502;51.296;16.918;2023-11-19T04:41:34;43.05;;;25.83;;
48703;SDS011;34502;51.296;16.918;2023-11-19T04:44:01;42.05;;;25.42;;
48703;SDS011;34502;51.296;16.918;2023-11-19T04:46:27;40.92;;;24.30;;
48703;SDS011;34502;51.296;16.918;2023-11-19T04:48:53;40.28;;;25.27;;
48703;SDS011;34502;51.296;16.918;2023-11-19T04:51:20;39.33;;;24.58;;
48703;SDS011;34502;51.296;16.918;2023-11-19T04:53:46;41.90;;;25.55;;
48703;SDS011;34502;51.296;16.918;2023-11-19T04:56:12;41.60;;;25.55;;
48703;SDS011;34502;51.296;16.918;2023-11-19T04:58:41;40.53;;;24.23;;
48703;SDS011;34502;51.296;16.918;2023-11-19T05:01:12;40.10;;;24.05;;
48703;SDS011;34502;51.296;16.918;2023-11-19T05:03:41;39.28;;;24.55;;
48703;SDS011;34502;51.296;16.918;2023-11-19T05:06:12;38.88;;;23.25;;
48703;SDS011;34502;51.296;16.918;2023-11-19T05:08:50;38.67;;;24.15;;
48703;SDS011;34502;51.296;16.918;2023-11-19T05:11:16;38.75;;;22.55;;
48703;SDS011;34502;51.296;16.918;2023-11-19T05:13:44;36.50;;;22.58;;
48703;SDS011;34502;51.296;16.918;2023-11-19T05:16:10;40.75;;;22.80;;
48703;SDS011;34502;51.296;16.918;2023-11-19T05:18:39;36.85;;;22.92;;
48703;SDS011;34502;51.296;16.918;2023-11-19T05:21:05;39.47;;;24.30;;
48703;SDS011;34502;51.296;16.918;2023-11-19T05:23:34;35.75;;;24.05;;
48703;SDS011;34502;51.296;16.918;2023-11-19T05:26:03;35.88;;;21.98;;
48703;SDS011;34502;51.296;16.918;2023-11-19T05:28:30;38.47;;;22.92;;
48703;SDS011;34502;51.296;16.918;2023-11-19T05:30:56;35.08;;;22.50;;
48703;SDS011;34502;51.296;16.918;2023-11-19T05:33:22;33.42;;;21.85;;
48703;SDS011;34502;51.296;16.918;2023-11-19T05:35:50;36.65;;;21.80;;
48703;SDS011;34502;51.296;16.918;2023-11-19T05:38:16;36.42;;;22.75;;
48703;SDS011;34502;51.296;16.918;2023-11-19T05:40:45;34.03;;;21.65;;
48703;SDS011;34502;51.296;16.918;2023-11-19T05:43:13;33.47;;;20.27;;
48703;SDS011;34502;51.296;16.918;2023-11-19T05:45:41;35.95;;;21.13;;
48703;SDS011;34502;51.296;16.918;2023-11-19T05:48:08;31.17;;;19.70;;
48703;SDS011;34502;51.296;16.918;2023-11-19T05:50:34;35.55;;;20.85;;
48703;SDS011;34502;51.296;16.918;2023-11-19T05:53:00;32.22;;;20.05;;
48703;SDS011;34502;51.296;16.918;2023-11-19T05:55:27;30.92;;;20.08;;
48703;SDS011;34502;51.296;16.918;2023-11-19T05:57:53;28.27;;;19.10;;
48703;SDS011;34502;51.296;16.918;2023-11-19T06:00:19;33.80;;;19.98;;
48703;SDS011;34502;51.296;16.918;2023-11-19T06:02:45;30.48;;;18.95;;
48703;SDS011;34502;51.296;16.918;2023-11-19T06:05:11;29.10;;;19.13;;
48703;SDS011;34502;51.296;16.918;2023-11-19T06:07:38;27.17;;;18.38;;
48703;SDS011;34502;51.296;16.918;2023-11-19T06:10:04;30.45;;;20.05;;
48703;SDS011;34502;51.296;16.918;2023-11-19T06:12:32;30.40;;;19.48;;
48703;SDS011;34502;51.296;16.918;2023-11-19T06:15:06;29.77;;;18.58;;
48703;SDS011;34502;51.296;16.918;2023-11-19T06:17:33;28.35;;;18.67;;
48703;SDS011;34502;51.296;16.918;2023-11-19T06:19:59;31.60;;;19.88;;
48703;SDS011;34502;51.296;16.918;2023-11-19T06:22:26;28.10;;;18.10;;
48703;SDS011;34502;51.296;16.918;2023-11-19T06:24:52;28.15;;;18.02;;
48703;SDS011;34502;51.296;16.918;2023-11-19T06:27:20;31.95;;;20.17;;
48703;SDS011;34502;51.296;16.918;2023-11-19T06:29:47;29.23;;;18.70;;
48703;SDS011;34502;51.296;16.918;2023-11-19T06:32:13;31.55;;;19.58;;
48703;SDS011;34502;51.296;16.918;2023-11-19T06:34:40;27.55;;;19.15;;
48703;SDS011;34502;51.296;16.918;2023-11-19T06:37:07;29.20;;;18.75;;
48703;SDS011;34502;51.296;16.918;2023-11-19T06:39:34;31.40;;;19.52;;
48703;SDS011;34502;51.296;16.918;2023-11-19T06:42:00;30.73;;;19.30;;
48703;SDS011;34502;51.296;16.918;2023-11-19T06:44:29;29.42;;;18.92;;
48703;SDS011;34502;51.296;16.918;2023-11-19T06:46:55;29.48;;;19.52;;
48703;SDS011;34502;51.296;16.918;2023-11-19T06:49:21;30.17;;;18.77;;
48703;SDS011;34502;51.296;16.918;2023-11-19T06:51:48;29.55;;;19.42;;
48703;SDS011;34502;51.296;16.918;2023-11-19T06:54:14;30.55;;;19.85;;
48703;SDS011;34502;51.296;16.918;2023-11-19T06:56:41;30.92;;;19.50;;
48703;SDS011;34502;51.296;16.918;2023-11-19T06:59:07;28.45;;;17.73;;
48703;SDS011;34502;51.296;16.918;2023-11-19T07:01:34;31.95;;;19.42;;
48703;SDS011;34502;51.296;16.918;2023-11-19T07:04:01;28.00;;;17.63;;
48703;SDS011;34502;51.296;16.918;2023-11-19T07:06:33;27.30;;;18.45;;
48703;SDS011;34502;51.296;16.918;2023-11-19T07:09:00;31.83;;;18.90;;
48703;SDS011;34502;51.296;16.918;2023-11-19T07:11:34;28.33;;;18.10;;
48703;SDS011;34502;51.296;16.918;2023-11-19T07:14:01;27.83;;;18.65;;
48703;SDS011;34502;51.296;16.918;2023-11-19T07:16:28;31.98;;;17.35;;
48703;SDS011;34502;51.296;16.918;2023-11-19T07:18:54;24.00;;;16.35;;
48703;SDS011;34502;51.296;16.918;2023-11-19T07:21:20;26.13;;;17.75;;
48703;SDS011;34502;51.296;16.918;2023-11-19T07:23:48;22.13;;;15.93;;
48703;SDS011;34502;51.296;16.918;2023-11-19T07:26:15;23.75;;;16.55;;
48703;SDS011;34502;51.296;16.918;2023-11-19T07:28:43;24.85;;;16.20;;
48703;SDS011;34502;51.296;16.918;2023-11-19T07:31:10;24.85;;;16.38;;
48703;SDS011;34502;51.296;16.918;2023-11-19T07:33:36;24.75;;;16.10;;
48703;SDS011;34502;51.296;16.918;2023-11-19T07:36:03;22.30;;;14.95;;
48703;SDS011;34502;51.296;16.918;2023-11-19T07:38:29;22.15;;;14.15;;
48703;SDS011;34502;51.296;16.918;2023-11-19T07:40:55;19.85;;;13.68;;
48703;SDS011;34502;51.296;16.918;2023-11-19T07:43:21;21.67;;;14.25;;
48703;SDS011;34502;51.296;16.918;2023-11-19T07:45:47;19.63;;;12.82;;
48703;SDS011;34502;51.296;16.918;2023-11-19T07:48:13;23.02;;;14.60;;
48703;SDS011;34502;51.296;16.918;2023-11-19T07:50:40;19.38;;;13.90;;
48703;SDS011;34502;51.296;16.918;2023-11-19T07:53:07;16.40;;;12.15;;
48703;SDS011;34502;51.296;16.918;2023-11-19T07:55:33;15.77;;;11.15;;
48703;SDS011;34502;51.296;16.918;2023-11-19T07:58:00;16.05;;;10.93;;
48703;SDS011;34502;51.296;16.918;2023-11-19T08:00:26;16.30;;;11.60;;
48703;SDS011;34502;51.296;16.918;2023-11-19T08:02:52;18.42;;;11.20;;
48703;SDS011;34502;51.296;16.918;2023-11-19T08:05:18;14.30;;;10.80;;
48703;SDS011;34502;51.296;16.918;2023-11-19T08:07:44;16.60;;;10.98;;
48703;SDS011;34502;51.296;16.918;2023-11-19T08:10:12;17.35;;;11.77;;
48703;SDS011;34502;51.296;16.918;2023-11-19T08:12:40;14.75;;;10.90;;
48703;SDS011;34502;51.296;16.918;2023-11-19T08:15:06;17.95;;;11.98;;
48703;SDS011;34502;51.296;16.918;2023-11-19T08:17:33;16.95;;;12.02;;
48703;SDS011;34502;51.296;16.918;2023-11-19T08:19:59;17.70;;;12.48;;
48703;SDS011;34502;51.296;16.918;2023-11-19T08:22:25;16.45;;;11.45;;
48703;SDS011;34502;51.296;16.918;2023-11-19T08:24:51;18.65;;;11.98;;
48703;SDS011;34502;51.296;16.918;2023-11-19T08:27:17;16.90;;;11.23;;
48703;SDS011;34502;51.296;16.918;2023-11-19T08:29:43;15.95;;;12.00;;
48703;SDS011;34502;51.296;16.918;2023-11-19T08:32:10;14.82;;;10.88;;
48703;SDS011;34502;51.296;16.918;2023-11-19T08:34:37;16.67;;;12.23;;
48703;SDS011;34502;51.296;16.918;2023-11-19T08:37:03;17.95;;;11.43;;
48703;SDS011;34502;51.296;16.918;2023-11-19T08:39:29;17.88;;;12.07;;
48703;SDS011;34502;51.296;16.918;2023-11-19T08:41:55;18.83;;;12.32;;
48703;SDS011;34502;51.296;16.918;2023-11-19T08:44:21;16.83;;;12.43;;
48703;SDS011;34502;51.296;16.918;2023-11-19T08:46:48;16.70;;;11.82;;
48703;SDS011;34502;51.296;16.918;2023-11-19T08:49:15;15.38;;;11.07;;
48703;SDS011;34502;51.296;16.918;2023-11-19T08:51:41;17.70;;;11.93;;
48703;SDS011;34502;51.296;16.918;2023-11-19T08:54:07;16.52;;;11.68;;
48703;SDS011;34502;51.296;16.918;2023-11-19T08:56:33;16.50;;;11.63;;
48703;SDS011;34502;51.296;16.918;2023-11-19T08:59:00;13.90;;;11.40;;
48703;SDS011;34502;51.296;16.918;2023-11-19T09:01:29;17.02;;;12.23;;
48703;SDS011;34502;51.296;16.918;2023-11-19T09:03:55;15.45;;;11.35;;
48703;SDS011;34502;51.296;16.918;2023-11-19T09:06:22;16.15;;;11.55;;
48703;SDS011;34502;51.296;16.918;2023-11-19T09:08:48;16.27;;;11.50;;
48703;SDS011;34502;51.296;16.918;2023-11-19T09:11:17;18.48;;;11.38;;
48703;SDS011;34502;51.296;16.918;2023-11-19T09:13:46;17.05;;;11.20;;
48703;SDS011;34502;51.296;16.918;2023-11-19T09:16:12;15.55;;;11.23;;
48703;SDS011;34502;51.296;16.918;2023-11-19T09:18:40;15.13;;;11.10;;
48703;SDS011;34502;51.296;16.918;2023-11-19T09:21:06;17.27;;;11.88;;
48703;SDS011;34502;51.296;16.918;2023-11-19T09:23:33;18.85;;;13.30;;
48703;SDS011;34502;51.296;16.918;2023-11-19T09:26:04;16.13;;;11.82;;
48703;SDS011;34502;51.296;16.918;2023-11-19T09:28:30;21.92;;;14.18;;
48703;SDS011;34502;51.296;16.918;2023-11-19T09:30:57;20.55;;;13.80;;
48703;SDS011;34502;51.296;16.918;2023-11-19T09:33:24;21.05;;;13.82;;
48703;SDS011;34502;51.296;16.918;2023-11-19T09:35:51;18.13;;;12.90;;
48703;SDS011;34502;51.296;16.918;2023-11-19T09:38:18;21.48;;;14.05;;
48703;SDS011;34502;51.296;16.918;2023-11-19T09:40:44;20.15;;;14.15;;
48703;SDS011;34502;51.296;16.918;2023-11-19T09:43:10;21.75;;;14.63;;
48703;SDS011;34502;51.296;16.918;2023-11-19T09:45:42;21.13;;;14.35;;
48703;SDS011;34502;51.296;16.918;2023-11-19T09:48:18;21.20;;;14.15;;
48703;SDS011;34502;51.296;16.918;2023-11-19T09:50:48;18.75;;;13.48;;
48703;SDS011;34502;51.296;16.918;2023-11-19T09:53:14;24.65;;;15.45;;
48703;SDS011;34502;51.296;16.918;2023-11-19T09:55:43;23.48;;;14.50;;
48703;SDS011;34502;51.296;16.918;2023-11-19T09:58:11;20.38;;;14.40;;
48703;SDS011;34502;51.296;16.918;2023-11-19T10:00:37;24.35;;;15.70;;
48703;SDS011;34502;51.296;16.918;2023-11-19T10:03:04;20.40;;;14.88;;
48703;SDS011;34502;51.296;16.918;2023-11-19T10:05:30;23.13;;;14.75;;
48703;SDS011;34502;51.296;16.918;2023-11-19T10:07:56;21.85;;;14.15;;
48703;SDS011;34502;51.296;16.918;2023-11-19T10:10:23;21.27;;;13.30;;
48703;SDS011;34502;51.296;16.918;2023-11-19T10:12:52;21.45;;;14.48;;
48703;SDS011;34502;51.296;16.918;2023-11-19T10:15:22;21.30;;;14.50;;
48703;SDS011;34502;51.296;16.918;2023-11-19T10:17:50;20.92;;;13.95;;
48703;SDS011;34502;51.296;16.918;2023-11-19T10:20:16;19.42;;;13.38;;
48703;SDS011;34502;51.296;16.918;2023-11-19T10:22:43;22.65;;;14.77;;
48703;SDS011;34502;51.296;16.918;2023-11-19T10:25:25;20.45;;;13.68;;
48703;SDS011;34502;51.296;16.918;2023-11-19T10:27:53;20.98;;;14.20;;
48703;SDS011;34502;51.296;16.918;2023-11-19T10:30:21;23.70;;;15.18;;
48703;SDS011;34502;51.296;16.918;2023-11-19T10:33:10;21.10;;;13.77;;
48703;SDS011;34502;51.296;16.918;2023-11-19T10:35:55;20.00;;;13.45;;
48703;SDS011;34502;51.296;16.918;2023-11-19T10:38:22;21.88;;;14.98;;
48703;SDS011;34502;51.296;16.918;2023-11-19T10:40:51;22.58;;;14.65;;
48703;SDS011;34502;51.296;16.918;2023-11-19T10:43:19;20.80;;;13.93;;
48703;SDS011;34502;51.296;16.918;2023-11-19T10:45:48;18.08;;;13.55;;
48703;SDS011;34502;51.296;16.918;2023-11-19T10:48:14;19.25;;;14.07;;
48703;SDS011;34502;51.296;16.918;2023-11-19T10:50:41;21.42;;;14.52;;
48703;SDS011;34502;51.296;16.918;2023-11-19T10:53:08;22.77;;;13.38;;
48703;SDS011;34502;51.296;16.918;2023-11-19T10:55:38;20.30;;;14.07;;
48703;SDS011;34502;51.296;16.918;2023-11-19T10:58:10;18.98;;;13.18;;
48703;SDS011;34502;51.296;16.918;2023-11-19T11:03:18;18.42;;;12.50;;
48703;SDS011;34502;51.296;16.918;2023-11-19T11:05:49;20.25;;;13.88;;
48703;SDS011;34502;51.296;16.918;2023-11-19T11:08:16;19.55;;;12.68;;
48703;SDS011;34502;51.296;16.918;2023-11-19T11:10:44;18.73;;;12.75;;
48703;SDS011;34502;51.296;16.918;2023-11-19T11:13:11;19.63;;;13.15;;
48703;SDS011;34502;51.296;16.918;2023-11-19T11:15:41;20.73;;;11.95;;
48703;SDS011;34502;51.296;16.918;2023-11-19T11:18:08;14.73;;;10.80;;
48703;SDS011;34502;51.296;16.918;2023-11-19T11:20:35;16.42;;;10.80;;
48703;SDS011;34502;51.296;16.918;2023-11-19T11:26:04;16.40;;;10.68;;
48703;SDS011;34502;51.296;16.918;2023-11-19T11:39:51;14.55;;;10.35;;
48703;SDS011;34502;51.296;16.918;2023-11-19T11:50:08;12.50;;;8.60;;
48703;SDS011;34502;51.296;16.918;2023-11-19T11:58:30;9.55;;;7.18;;
48703;SDS011;34502;51.296;16.918;2023-11-19T12:00:58;8.20;;;6.43;;
48703;SDS011;34502;51.296;16.918;2023-11-19T12:03:27;8.35;;;6.53;;
48703;SDS011;34502;51.296;16.918;2023-11-19T12:05:55;8.88;;;7.13;;
48703;SDS011;34502;51.296;16.918;2023-11-19T12:08:25;9.95;;;6.50;;
48703;SDS011;34502;51.296;16.918;2023-11-19T12:10:53;8.65;;;5.68;;
48703;SDS011;34502;51.296;16.918;2023-11-19T12:13:42;9.10;;;6.65;;
48703;SDS011;34502;51.296;16.918;2023-11-19T12:16:27;8.20;;;6.20;;
48703;SDS011;34502;51.296;16.918;2023-11-19T12:18:55;7.60;;;6.60;;
48703;SDS011;34502;51.296;16.918;2023-11-19T12:21:28;9.88;;;6.85;;
48703;SDS011;34502;51.296;16.918;2023-11-19T12:23:55;9.98;;;6.68;;
48703;SDS011;34502;51.296;16.918;2023-11-19T12:26:35;9.00;;;6.57;;
48703;SDS011;34502;51.296;16.918;2023-11-19T12:29:02;7.88;;;6.50;;
48703;SDS011;34502;51.296;16.918;2023-11-19T12:31:31;9.82;;;6.30;;
48703;SDS011;34502;51.296;16.918;2023-11-19T12:33:57;9.07;;;6.57;;
48703;SDS011;34502;51.296;16.918;2023-11-19T12:36:23;9.27;;;7.13;;
48703;SDS011;34502;51.296;16.918;2023-11-19T12:38:49;9.00;;;6.88;;
48703;SDS011;34502;51.296;16.918;2023-11-19T12:41:18;7.53;;;6.07;;
48703;SDS011;34502;51.296;16.918;2023-11-19T12:43:48;9.88;;;6.88;;
48703;SDS011;34502;51.296;16.918;2023-11-19T12:46:18;12.55;;;7.35;;
48703;SDS011;34502;51.296;16.918;2023-11-19T12:48:47;12.80;;;8.38;;
48703;SDS011;34502;51.296;16.918;2023-11-19T12:51:16;11.45;;;6.72;;
48703;SDS011;34502;51.296;16.918;2023-11-19T12:53:52;8.68;;;5.93;;
48703;SDS011;34502;51.296;16.918;2023-11-19T12:56:23;9.52;;;6.93;;
48703;SDS011;34502;51.296;16.918;2023-11-19T12:58:49;9.98;;;7.03;;
48703;SDS011;34502;51.296;16.918;2023-11-19T13:01:18;8.73;;;6.68;;
48703;SDS011;34502;51.296;16.918;2023-11-19T13:03:48;9.05;;;7.35;;
48703;SDS011;34502;51.296;16.918;2023-11-19T13:06:16;7.50;;;5.82;;
48703;SDS011;34502;51.296;16.918;2023-11-19T13:11:10;9.52;;;6.65;;
48703;SDS011;34502;51.296;16.918;2023-11-19T13:13:57;7.45;;;6.25;;
48703;SDS011;34502;51.296;16.918;2023-11-19T13:16:35;10.45;;;7.10;;
48703;SDS011;34502;51.296;16.918;2023-11-19T13:19:02;8.82;;;7.05;;
48703;SDS011;34502;51.296;16.918;2023-11-19T13:21:31;10.88;;;7.90;;
48703;SDS011;34502;51.296;16.918;2023-11-19T13:23:57;9.05;;;6.53;;
48703;SDS011;34502;51.296;16.918;2023-11-19T13:26:23;8.82;;;6.70;;
48703;SDS011;34502;51.296;16.918;2023-11-19T13:28:52;9.60;;;6.63;;
48703;SDS011;34502;51.296;16.918;2023-11-19T13:31:18;10.18;;;7.07;;
48703;SDS011;34502;51.296;16.918;2023-11-19T13:33:46;10.02;;;7.43;;
48703;SDS011;34502;51.296;16.918;2023-11-19T13:36:12;16.02;;;9.45;;
48703;SDS011;34502;51.296;16.918;2023-11-19T13:38:39;10.13;;;6.72;;
48703;SDS011;34502;51.296;16.918;2023-11-19T13:41:09;15.10;;;10.88;;
48703;SDS011;34502;51.296;16.918;2023-11-19T13:43:38;16.83;;;10.50;;
48703;SDS011;34502;51.296;16.918;2023-11-19T13:46:05;10.23;;;7.82;;
48703;SDS011;34502;51.296;16.918;2023-11-19T13:48:31;12.68;;;8.10;;
48703;SDS011;34502;51.296;16.918;2023-11-19T13:50:57;11.45;;;7.57;;
48703;SDS011;34502;51.296;16.918;2023-11-19T13:53:24;13.32;;;8.35;;
48703;SDS011;34502;51.296;16.918;2023-11-19T13:55:51;12.30;;;8.70;;
48703;SDS011;34502;51.296;16.918;2023-11-19T13:58:19;24.17;;;15.55;;
48703;SDS011;34502;51.296;16.918;2023-11-19T14:00:46;16.70;;;11.32;;
48703;SDS011;34502;51.296;16.918;2023-11-19T14:03:12;14.23;;;8.80;;
48703;SDS011;34502;51.296;16.918;2023-11-19T14:05:41;13.70;;;7.80;;
48703;SDS011;34502;51.296;16.918;2023-11-19T14:08:07;12.63;;;8.02;;
48703;SDS011;34502;51.296;16.918;2023-11-19T14:10:37;13.75;;;9.85;;
48703;SDS011;34502;51.296;16.918;2023-11-19T14:13:05;12.57;;;8.70;;
48703;SDS011;34502;51.296;16.918;2023-11-19T14:15:31;14.02;;;8.93;;
48703;SDS011;34502;51.296;16.918;2023-11-19T14:17:57;12.75;;;7.65;;
48703;SDS011;34502;51.296;16.918;2023-11-19T14:20:24;14.85;;;9.02;;
48703;SDS011;34502;51.296;16.918;2023-11-19T14:22:50;12.55;;;9.02;;
48703;SDS011;34502;51.296;16.918;2023-11-19T14:25:17;13.93;;;9.35;;
48703;SDS011;34502;51.296;16.918;2023-11-19T14:27:48;15.65;;;10.00;;
48703;SDS011;34502;51.296;16.918;2023-11-19T14:30:15;12.32;;;8.90;;
48703;SDS011;34502;51.296;16.918;2023-11-19T14:32:41;17.92;;;10.90;;
48703;SDS011;34502;51.296;16.918;2023-11-19T14:35:12;14.63;;;10.25;;
48703;SDS011;34502;51.296;16.918;2023-11-19T14:37:38;17.17;;;11.13;;
48703;SDS011;34502;51.296;16.918;2023-11-19T14:40:04;20.20;;;12.18;;
48703;SDS011;34502;51.296;16.918;2023-11-19T14:42:33;19.95;;;13.48;;
48703;SDS011;34502;51.296;16.918;2023-11-19T14:45:00;21.42;;;13.18;;
48703;SDS011;34502;51.296;16.918;2023-11-19T14:47:26;29.00;;;17.02;;